Time;durP1;ratioP1;P1;durP2;ratioP2;P2;SDS_P1;SDS_P2;PMS_P1;PMS_P2;Temp;Humidity;BMP_temperature;BMP_pressure;BME280_temperature;BME280_humidity;BME280_pressure;Samples;Min_cycle;Max_cycle;Signal;HPM_P1;HPM_P2
2022/08/15 00:02:00;;;;;;;2.10;1.23;;;25.10;53.30;;;;;;4716176;30;20467;-77
2022/08/15 00:04:27;;;;;;;2.25;1.40;;;25.10;53.30;;;;;;4710544;30;20114;-78
2022/08/15 00:07:01;;;;;;;2.40;1.40;;;25.10;53.30;;;;;;4713578;30;20158;-77
2022/08/15 00:09:28;;;;;;;1.83;1.25;;;25.10;53.30;;;;;;4717213;30;20491;-77
2022/08/15 00:12:17;;;;;;;1.98;1.42;;;25.10;53.30;;;;;;4717168;30;20091;-77
2022/08/15 00:15:06;;;;;;;1.85;1.27;;;25.10;53.10;;;;;;4705372;30;20056;-78
2022/08/15 00:17:35;;;;;;;1.88;1.13;;;25.10;53.00;;;;;;4704963;30;20053;-77
2022/08/15 00:20:17;;;;;;;2.08;1.15;;;25.20;53.00;;;;;;4710156;30;20056;-77
2022/08/15 00:22:59;;;;;;;1.70;1.05;;;25.20;53.00;;;;;;4729389;30;20045;-77
2022/08/15 00:25:28;;;;;;;2.30;1.40;;;25.20;53.00;;;;;;4717307;30;20057;-77
2022/08/15 00:27:55;;;;;;;2.15;1.30;;;25.10;52.90;;;;;;4712690;30;20111;-77
2022/08/15 00:30:24;;;;;;;2.00;1.17;;;25.20;53.10;;;;;;4723030;30;20064;-77
2022/08/15 00:32:55;;;;;;;2.55;1.70;;;25.10;53.30;;;;;;4707790;30;20053;-77
2022/08/15 00:35:47;;;;;;;1.70;1.17;;;25.00;53.50;;;;;;4710764;30;20050;-77
2022/08/15 00:38:25;;;;;;;2.40;1.23;;;25.00;53.70;;;;;;4699478;30;20050;-77
2022/08/15 00:44:05;;;;;;;2.00;1.20;;;24.90;54.00;;;;;;4696612;30;20473;-77
2022/08/15 00:46:37;;;;;;;2.45;1.30;;;24.80;54.10;;;;;;4700323;30;20132;-77
2022/08/15 00:49:07;;;;;;;;;;;24.80;54.20;;;;;;4699410;30;20127;-77
2022/08/15 00:51:55;;;;;;;2.50;1.25;;;24.80;54.10;;;;;;4698904;30;19961;-77
2022/08/15 00:54:39;;;;;;;1.75;1.10;;;24.80;54.30;;;;;;4702022;30;20133;-77
2022/08/15 00:57:34;;;;;;;2.22;1.30;;;24.80;54.20;;;;;;4699006;30;20049;-77
2022/08/15 01:00:26;;;;;;;1.83;1.00;;;24.90;54.10;;;;;;4698746;30;20108;-77
2022/08/15 01:03:05;;;;;;;2.90;1.70;;;24.90;54.00;;;;;;4677137;30;20078;-77
2022/08/15 01:05:42;;;;;;;2.17;1.55;;;24.90;53.90;;;;;;4709948;30;20045;-77
2022/08/15 01:08:16;;;;;;;1.90;1.25;;;25.00;53.90;;;;;;4690828;30;20064;-77
2022/08/15 01:10:56;;;;;;;2.67;1.50;;;25.00;54.00;;;;;;4698429;30;20045;-77
2022/08/15 01:13:33;;;;;;;2.20;1.38;;;24.90;54.00;;;;;;4698822;30;20089;-77
2022/08/15 01:16:23;;;;;;;1.83;1.13;;;24.90;54.10;;;;;;4698770;30;20076;-77
2022/08/15 01:19:15;;;;;;;2.45;1.73;;;24.90;54.10;;;;;;4708757;30;20079;-77
2022/08/15 01:22:00;;;;;;;2.13;1.30;;;24.90;54.10;;;;;;4712870;30;20121;-77
2022/08/15 01:25:05;;;;;;;2.72;1.50;;;24.90;54.10;;;;;;4698496;30;20058;-78
2022/08/15 01:28:00;;;;;;;2.17;1.45;;;24.90;54.10;;;;;;4697411;30;20428;-78
2022/08/15 01:30:37;;;;;;;2.10;1.42;;;24.90;54.10;;;;;;4698435;30;20525;-77
2022/08/15 01:33:26;;;;;;;2.20;1.52;;;24.90;54.20;;;;;;4729121;30;20468;-77
2022/08/15 01:35:55;;;;;;;2.50;1.63;;;24.90;54.30;;;;;;4728849;30;20048;-77
2022/08/15 01:38:30;;;;;;;2.67;1.50;;;24.80;55.00;;;;;;4713219;30;20558;-77
2022/08/15 01:41:30;;;;;;;2.10;1.33;;;24.80;54.50;;;;;;4722614;30;20054;-77
2022/08/15 01:44:13;;;;;;;2.22;1.40;;;24.80;54.60;;;;;;4719493;30;20133;-77
2022/08/15 01:47:19;;;;;;;2.40;1.58;;;24.70;55.20;;;;;;4730245;30;20053;-77
2022/08/15 01:49:57;;;;;;;2.17;1.45;;;24.70;54.70;;;;;;4721072;30;20056;-77
2022/08/15 01:52:37;;;;;;;2.03;1.50;;;24.70;54.80;;;;;;4721579;30;20148;-77
2022/08/15 01:55:57;;;;;;;3.25;1.75;;;24.60;54.90;;;;;;4731384;30;20114;-78
2022/08/15 01:58:27;;;;;;;2.63;1.65;;;24.60;55.00;;;;;;4715303;30;20382;-77
2022/08/15 02:01:19;;;;;;;2.13;1.38;;;24.50;55.20;;;;;;4718602;30;20084;-77
2022/08/15 02:04:01;;;;;;;2.47;1.30;;;24.50;55.40;;;;;;4721108;30;20060;-77
2022/08/15 02:06:34;;;;;;;2.53;1.48;;;24.40;55.60;;;;;;4724511;30;20063;-78
2022/08/15 02:09:16;;;;;;;3.10;1.83;;;24.30;55.70;;;;;;4705246;30;20053;-77
2022/08/15 02:12:08;;;;;;;2.25;1.35;;;24.30;55.80;;;;;;4717701;30;20064;-77
2022/08/15 02:14:57;;;;;;;2.38;1.50;;;24.20;55.80;;;;;;4706818;30;20051;-78
2022/08/15 02:17:25;;;;;;;2.17;1.48;;;24.20;56.00;;;;;;4716821;30;20048;-77
2022/08/15 02:20:00;;;;;;;1.85;1.10;;;24.20;56.10;;;;;;4718432;30;20075;-77
2022/08/15 02:22:50;;;;;;;2.08;1.38;;;24.10;56.10;;;;;;4718778;30;20116;-77
2022/08/15 02:25:18;;;;;;;2.53;1.48;;;24.00;56.20;;;;;;4727931;30;20060;-77
2022/08/15 02:27:51;;;;;;;2.78;1.65;;;24.00;56.40;;;;;;4709562;30;20481;-77
2022/08/15 02:30:21;;;;;;;2.40;1.40;;;23.90;56.40;;;;;;4719476;30;20068;-76
2022/08/15 02:32:59;;;;;;;2.85;1.33;;;23.90;56.60;;;;;;4714436;30;20053;-77
2022/08/15 02:35:27;;;;;;;2.47;1.38;;;23.80;56.70;;;;;;4709583;30;20045;-77
2022/08/15 02:38:01;;;;;;;2.80;1.88;;;23.80;56.90;;;;;;4720490;30;20106;-77
2022/08/15 02:40:29;;;;;;;2.33;1.45;;;23.70;57.00;;;;;;4727022;30;20056;-77
2022/08/15 02:43:15;;;;;;;2.35;1.52;;;23.70;57.10;;;;;;4721566;30;20469;-77
2022/08/15 02:45:48;;;;;;;2.50;1.50;;;23.60;57.20;;;;;;4710256;30;20044;-77
2022/08/15 02:48:38;;;;;;;2.45;1.65;;;23.60;57.30;;;;;;4714639;30;20515;-77
2022/08/15 02:51:14;;;;;;;2.15;1.30;;;23.60;58.00;;;;;;4692684;30;20497;-77
2022/08/15 02:53:48;;;;;;;2.28;1.42;;;23.60;57.40;;;;;;4717539;30;20072;-77
2022/08/15 02:56:24;;;;;;;1.95;1.35;;;23.60;57.40;;;;;;4718367;30;20594;-77
2022/08/15 02:59:00;;;;;;;2.53;1.42;;;23.60;57.40;;;;;;4704239;30;20048;-77
2022/08/15 03:01:28;;;;;;;2.50;1.50;;;23.60;57.40;;;;;;4712420;30;20056;-77
2022/08/15 03:04:13;;;;;;;2.55;1.48;;;23.60;57.40;;;;;;4706405;30;20057;-77
2022/08/15 03:06:57;;;;;;;1.77;1.13;;;23.60;57.50;;;;;;4720350;30;20076;-77
2022/08/15 03:09:27;;;;;;;2.03;1.15;;;23.50;57.50;;;;;;4718269;30;20048;-78
2022/08/15 03:12:07;;;;;;;2.05;1.15;;;23.50;57.50;;;;;;4706634;30;20052;-77
2022/08/15 03:14:56;;;;;;;2.45;1.55;;;23.50;57.60;;;;;;4721661;30;20111;-77
2022/08/15 03:17:26;;;;;;;2.17;1.48;;;23.40;57.80;;;;;;4690478;30;20083;-77
2022/08/15 03:19:55;;;;;;;2.10;1.20;;;23.40;58.00;;;;;;4689438;30;20041;-77
2022/08/15 03:22:26;;;;;;;2.63;1.60;;;23.30;58.10;;;;;;4709573;30;20072;-77
2022/08/15 03:25:16;;;;;;;2.67;1.25;;;23.30;58.30;;;;;;4717407;30;20506;-78
2022/08/15 03:27:59;;;;;;;4.53;1.80;;;23.20;58.40;;;;;;4718760;30;20040;-78
2022/08/15 03:30:31;;;;;;;2.47;1.55;;;23.20;58.50;;;;;;4705974;30;20414;-77
2022/08/15 03:32:59;;;;;;;2.90;1.40;;;23.10;58.60;;;;;;4696558;30;20196;-76
2022/08/15 03:35:39;;;;;;;2.45;1.65;;;23.10;58.70;;;;;;4719837;30;20052;-77
2022/08/15 03:38:08;;;;;;;2.15;1.40;;;23.10;58.80;;;;;;4704084;30;20049;-77
2022/08/15 03:40:39;;;;;;;2.88;1.73;;;23.00;58.90;;;;;;4706555;30;20060;-77
2022/08/15 03:43:19;;;;;;;3.08;1.75;;;22.90;59.00;;;;;;4715607;30;20089;-77
2022/08/15 03:45:50;;;;;;;2.53;1.63;;;22.90;59.20;;;;;;4727454;30;20055;-78
2022/08/15 03:48:26;;;;;;;3.22;1.75;;;22.80;59.40;;;;;;4721402;30;20049;-77
2022/08/15 03:50:57;;;;;;;2.28;1.45;;;22.70;59.60;;;;;;4721767;30;20080;-77
2022/08/15 03:53:32;;;;;;;3.08;1.80;;;22.60;59.80;;;;;;4704515;30;20139;-77
2022/08/15 03:56:01;;;;;;;2.63;1.60;;;22.60;60.00;;;;;;4728324;30;20583;-77
2022/08/15 03:58:33;;;;;;;2.92;1.80;;;22.50;60.10;;;;;;4718173;30;20044;-77
2022/08/15 04:01:08;;;;;;;2.92;2.10;;;22.50;60.30;;;;;;4720545;30;20414;-77
2022/08/15 04:03:41;;;;;;;2.95;1.83;;;22.50;60.50;;;;;;4717848;30;20136;-77
2022/08/15 04:06:11;;;;;;;2.95;1.90;;;22.40;60.60;;;;;;4707122;30;20144;-77
2022/08/15 04:08:47;;;;;;;3.78;1.98;;;22.40;60.80;;;;;;4725745;30;20119;-77
2022/08/15 04:11:35;;;;;;;3.03;2.17;;;22.40;61.00;;;;;;4709607;30;20052;-77
2022/08/15 04:14:16;;;;;;;2.35;1.60;;;22.40;61.10;;;;;;4718963;30;20044;-77
2022/08/15 04:17:06;;;;;;;2.63;1.80;;;22.30;61.20;;;;;;4708269;30;20503;-77
2022/08/15 04:19:46;;;;;;;2.92;1.88;;;22.30;61.20;;;;;;4707284;30;20051;-77
2022/08/15 04:22:34;;;;;;;2.65;1.67;;;22.30;61.30;;;;;;4706894;30;20494;-77
2022/08/15 04:25:11;;;;;;;2.50;1.73;;;22.30;61.40;;;;;;4716839;30;20056;-79
2022/08/15 04:27:50;;;;;;;2.70;1.98;;;22.30;61.50;;;;;;4715677;30;20048;-78
2022/08/15 04:30:25;;;;;;;2.78;1.77;;;22.30;61.60;;;;;;4693418;30;20074;-77
2022/08/15 04:32:56;;;;;;;3.17;1.80;;;22.30;61.70;;;;;;4702258;30;20614;-78
2022/08/15 04:35:26;;;;;;;1.85;1.38;;;22.30;61.70;;;;;;4731044;30;20064;-78
2022/08/15 04:37:58;;;;;;;3.47;2.20;;;22.30;61.80;;;;;;4692412;30;20392;-77
2022/08/15 04:40:28;;;;;;;3.60;1.98;;;22.40;61.90;;;;;;4704756;30;20057;-76
2022/08/15 04:43:18;;;;;;;3.08;2.15;;;22.40;62.00;;;;;;4712818;30;20048;-76
2022/08/15 04:45:47;;;;;;;2.95;1.85;;;22.40;62.10;;;;;;4723365;30;20418;-75
2022/08/15 04:48:15;;;;;;;3.17;1.92;;;22.40;62.20;;;;;;4689941;30;20441;-80
2022/08/15 04:50:49;;;;;;;2.95;1.90;;;22.40;62.20;;;;;;4710551;30;20147;-76
2022/08/15 04:53:23;;;;;;;3.25;2.05;;;22.40;62.20;;;;;;4713338;30;20520;-76
2022/08/15 04:55:59;;;;;;;3.65;2.30;;;22.50;62.30;;;;;;4726076;30;20055;-75
2022/08/15 04:58:30;;;;;;;3.97;2.60;;;22.40;62.30;;;;;;4703610;30;20057;-75
2022/08/15 05:01:19;;;;;;;3.55;2.33;;;22.40;62.50;;;;;;4721491;30;20072;-75
2022/08/15 05:03:51;;;;;;;2.53;1.92;;;22.40;62.60;;;;;;4720985;30;20148;-75
2022/08/15 05:06:22;;;;;;;3.25;2.15;;;22.40;62.70;;;;;;4715387;30;20477;-75
2022/08/15 05:09:01;;;;;;;3.13;2.28;;;22.40;62.80;;;;;;4713484;30;20707;-77
2022/08/15 05:11:30;;;;;;;3.33;2.20;;;22.40;62.90;;;;;;4718655;30;20419;-76
2022/08/15 05:14:18;;;;;;;4.22;2.90;;;22.40;62.90;;;;;;4704068;30;20775;-75
2022/08/15 05:17:04;;;;;;;5.15;2.88;;;22.40;63.00;;;;;;4712543;30;20048;-74
2022/08/15 05:19:35;;;;;;;5.80;4.00;;;22.40;63.10;;;;;;4726976;30;20053;-74
2022/08/15 05:22:03;;;;;;;5.35;3.75;;;22.50;63.30;;;;;;4718382;30;20479;-74
2022/08/15 05:24:32;;;;;;;6.63;4.30;;;22.50;63.30;;;;;;4719390;30;20060;-75
2022/08/15 05:27:00;;;;;;;6.05;4.10;;;22.50;63.40;;;;;;4711046;30;20139;-77
2022/08/15 05:29:31;;;;;;;5.05;4.00;;;22.50;64.10;;;;;;4702074;30;20155;-77
2022/08/15 05:31:59;;;;;;;5.85;4.60;;;22.50;63.50;;;;;;4726305;30;20140;-75
2022/08/15 05:34:30;;;;;;;7.40;5.00;;;22.50;63.60;;;;;;4720421;30;20133;-75
2022/08/15 05:37:12;;;;;;;5.50;4.68;;;22.50;63.90;;;;;;4719031;30;20181;-75
2022/08/15 05:39:44;;;;;;;7.60;6.28;;;22.50;64.00;;;;;;4720800;30;20107;-74
2022/08/15 05:42:36;;;;;;;6.72;5.53;;;22.50;64.20;;;;;;4726111;30;20787;-74
2022/08/15 05:45:32;;;;;;;6.60;5.15;;;22.40;64.20;;;;;;4712288;30;20057;-74
2022/08/15 05:48:23;;;;;;;6.43;4.75;;;22.50;64.30;;;;;;4726129;30;20099;-77
2022/08/15 05:51:24;;;;;;;6.90;5.25;;;22.40;64.30;;;;;;4713071;30;20056;-76
2022/08/15 05:54:12;;;;;;;5.72;4.22;;;22.40;64.40;;;;;;4712891;30;20759;-76
2022/08/15 05:57:06;;;;;;;7.10;4.38;;;22.50;64.10;;;;;;4719635;30;20052;-76
2022/08/15 05:59:40;;;;;;;5.70;4.13;;;22.50;64.00;;;;;;4714694;30;20070;-75
2022/08/15 06:02:36;;;;;;;5.57;4.15;;;22.40;64.00;;;;;;4714163;30;20514;-74
2022/08/15 06:05:47;;;;;;;5.85;4.05;;;22.40;63.80;;;;;;4712070;30;20079;-77
2022/08/15 06:08:35;;;;;;;5.63;3.97;;;22.40;63.90;;;;;;4715632;30;20072;-77
2022/08/15 06:11:26;;;;;;;3.85;2.88;;;22.40;63.90;;;;;;4708261;30;20053;-77
2022/08/15 06:14:06;;;;;;;4.53;3.17;;;22.40;63.70;;;;;;4716347;30;20052;-78
2022/08/15 06:16:52;;;;;;;6.45;3.45;;;22.50;63.50;;;;;;4709150;30;20130;-77
2022/08/15 06:19:32;;;;;;;5.43;4.32;;;22.60;63.30;;;;;;4716947;30;20052;-77
2022/08/15 06:22:36;;;;;;;5.68;3.78;;;22.60;63.30;;;;;;4720226;30;20064;-77
2022/08/15 06:25:44;;;;;;;4.53;2.92;;;22.70;63.30;;;;;;4718087;30;20060;-76
2022/08/15 06:28:24;;;;;;;5.25;3.17;;;22.70;63.20;;;;;;4724600;30;20125;-76
2022/08/15 06:31:22;;;;;;;3.17;2.60;;;22.70;63.00;;;;;;4725894;30;20052;-77
2022/08/15 06:34:11;;;;;;;3.42;2.33;;;22.80;62.80;;;;;;4699808;30;20057;-76
2022/08/15 06:37:31;;;;;;;3.60;1.92;;;22.90;62.60;;;;;;4721019;30;20068;-75
2022/08/15 06:40:11;;;;;;;3.92;2.13;;;22.90;62.40;;;;;;4713902;30;20080;-75
2022/08/15 06:42:57;;;;;;;3.45;2.47;;;23.00;62.10;;;;;;4702167;30;20059;-76
2022/08/15 06:45:54;;;;;;;3.38;2.53;;;23.10;61.80;;;;;;4716560;30;20080;-76
2022/08/15 06:48:29;;;;;;;2.35;1.52;;;23.20;61.50;;;;;;4716063;30;20143;-76
2022/08/15 06:51:18;;;;;;;3.85;1.90;;;23.30;61.20;;;;;;4712146;30;20670;-76
2022/08/15 06:53:58;;;;;;;2.53;1.60;;;23.40;60.90;;;;;;4704562;30;20048;-76
2022/08/15 06:56:38;;;;;;;4.47;1.83;;;23.60;60.50;;;;;;4704338;30;20053;-76
2022/08/15 06:59:11;;;;;;;2.75;1.45;;;23.60;60.10;;;;;;4707025;30;20087;-76
2022/08/15 07:02:01;;;;;;;2.75;1.50;;;23.70;60.00;;;;;;4714412;30;20056;-75
2022/08/15 07:05:10;;;;;;;3.53;1.30;;;23.70;59.70;;;;;;4727727;30;20052;-76
2022/08/15 07:08:08;;;;;;;2.05;1.40;;;23.80;59.50;;;;;;4718607;30;20045;-75
2022/08/15 07:10:48;;;;;;;3.75;1.83;;;23.80;59.20;;;;;;4717159;30;20473;-76
2022/08/15 07:13:29;;;;;;;2.50;1.42;;;23.80;59.00;;;;;;4721811;30;20059;-77
2022/08/15 07:16:04;;;;;;;4.03;1.55;;;23.90;58.90;;;;;;4707484;30;20060;-76
2022/08/15 07:18:35;;;;;;;1.77;1.02;;;23.90;58.70;;;;;;4699476;30;20072;-76
2022/08/15 07:21:11;;;;;;;3.40;1.35;;;24.00;58.60;;;;;;4717309;30;20063;-77
2022/08/15 07:23:59;;;;;;;2.83;1.65;;;24.10;58.50;;;;;;4717570;30;20435;-76
2022/08/15 07:26:37;;;;;;;3.67;1.42;;;24.20;58.30;;;;;;4723477;30;20159;-77
2022/08/15 07:29:13;;;;;;;3.28;1.33;;;24.20;58.30;;;;;;4705135;30;20036;-78
2022/08/15 07:31:43;;;;;;;2.58;0.80;;;24.20;58.20;;;;;;4721364;30;20151;-77
2022/08/15 07:34:31;;;;;;;1.67;1.02;;;24.30;58.20;;;;;;4709608;30;20896;-77
2022/08/15 07:37:06;;;;;;;2.35;1.00;;;24.30;58.20;;;;;;4703352;30;20498;-76
2022/08/15 07:39:40;;;;;;;2.53;1.20;;;24.40;58.10;;;;;;4733315;30;20036;-77
2022/08/15 07:42:21;;;;;;;2.42;0.93;;;24.40;57.90;;;;;;4721755;30;20179;-77
2022/08/15 07:45:25;;;;;;;1.48;0.80;;;24.50;57.80;;;;;;4716270;30;20454;-77
2022/08/15 07:47:59;;;;;;;1.77;1.08;;;24.60;57.60;;;;;;4703871;30;20114;-77
2022/08/15 07:50:37;;;;;;;2.05;0.93;;;24.60;57.60;;;;;;4717445;30;20743;-77
2022/08/15 07:53:16;;;;;;;2.20;1.00;;;24.60;57.40;;;;;;4732325;30;20590;-77
2022/08/15 07:56:04;;;;;;;1.38;0.90;;;24.70;57.30;;;;;;4713408;30;20052;-76
2022/08/15 07:59:06;;;;;;;3.28;1.27;;;24.70;57.00;;;;;;4714813;30;20207;-77
2022/08/15 08:01:36;;;;;;;2.10;1.30;;;24.70;56.90;;;;;;4733347;30;20110;-77
2022/08/15 08:04:11;;;;;;;2.13;1.20;;;24.70;56.80;;;;;;4715305;30;20055;-77
2022/08/15 08:06:54;;;;;;;2.42;1.45;;;24.80;56.70;;;;;;4716564;30;20503;-77
2022/08/15 08:09:32;;;;;;;2.97;1.30;;;24.90;56.50;;;;;;4714759;30;20053;-76
2022/08/15 08:12:08;;;;;;;3.45;1.50;;;24.90;56.40;;;;;;4738691;30;20475;-77
2022/08/15 08:14:45;;;;;;;2.97;1.48;;;25.00;56.30;;;;;;4726625;30;20060;-76
2022/08/15 08:17:21;;;;;;;2.42;1.25;;;25.00;56.20;;;;;;4691061;30;20053;-77
2022/08/15 08:19:53;;;;;;;2.60;1.60;;;25.10;56.00;;;;;;4678384;30;20081;-77
2022/08/15 08:22:30;;;;;;;2.97;1.75;;;25.20;55.80;;;;;;4695671;30;20144;-77
2022/08/15 08:25:29;;;;;;;2.83;1.48;;;25.20;55.60;;;;;;4678470;30;20077;-77
2022/08/15 08:28:32;;;;;;;2.28;1.35;;;25.20;55.60;;;;;;4694603;30;20061;-78
2022/08/15 08:31:07;;;;;;;2.08;1.08;;;25.20;55.60;;;;;;4681463;30;20051;-77
2022/08/15 08:33:59;;;;;;;2.15;1.10;;;25.20;55.60;;;;;;4696559;30;20076;-77
2022/08/15 08:36:45;;;;;;;2.10;0.90;;;25.30;55.50;;;;;;4679875;30;20053;-76
2022/08/15 08:39:15;;;;;;;2.55;1.00;;;25.30;55.40;;;;;;4683401;30;20085;-75
2022/08/15 08:42:20;;;;;;;2.65;1.02;;;25.30;55.30;;;;;;4679793;30;20140;-76
2022/08/15 08:45:10;;;;;;;2.30;1.08;;;25.50;55.20;;;;;;4680458;30;20061;-78
2022/08/15 08:47:47;;;;;;;2.83;1.58;;;25.50;55.10;;;;;;4695662;30;20093;-77
2022/08/15 08:50:33;;;;;;;2.55;1.50;;;25.60;54.80;;;;;;4696146;30;20080;-78
2022/08/15 08:53:28;;;;;;;3.25;1.58;;;25.60;54.80;;;;;;4676169;30;20989;-78
2022/08/15 08:56:21;;;;;;;3.10;1.40;;;25.60;54.60;;;;;;4728463;30;20115;-78
2022/08/15 08:59:08;;;;;;;3.22;1.33;;;25.70;54.60;;;;;;4716879;30;20060;-78
2022/08/15 09:01:38;;;;;;;2.25;1.58;;;25.90;54.40;;;;;;4719113;30;20073;-78
2022/08/15 09:04:15;;;;;;;2.58;1.30;;;26.00;54.10;;;;;;4732193;30;20173;-79
2022/08/15 09:06:47;;;;;;;4.07;1.52;;;26.20;54.00;;;;;;4731128;30;20470;-78
2022/08/15 09:09:16;;;;;;;2.80;1.40;;;26.30;53.80;;;;;;4716747;30;20076;-78
2022/08/15 09:11:57;;;;;;;3.03;1.55;;;26.30;53.80;;;;;;4717388;30;20040;-78
2022/08/15 09:14:34;;;;;;;3.53;1.90;;;26.40;53.80;;;;;;4732405;30;20479;-79
2022/08/15 09:17:23;;;;;;;2.58;1.33;;;26.30;53.50;;;;;;4733049;30;20098;-77
2022/08/15 09:20:32;;;;;;;2.60;1.55;;;26.20;53.70;;;;;;4717891;30;20053;-77
2022/08/15 09:23:06;;;;;;;2.58;1.30;;;26.30;53.90;;;;;;4715837;30;20056;-78
2022/08/15 09:25:42;;;;;;;2.65;1.60;;;26.20;53.80;;;;;;4701911;30;20049;-76
2022/08/15 09:28:25;;;;;;;4.18;1.88;;;26.30;54.10;;;;;;4731093;30;20060;-76
2022/08/15 09:31:05;;;;;;;1.23;0.82;;;26.30;54.20;;;;;;4726411;30;20056;-77
2022/08/15 09:33:57;;;;;;;3.35;1.70;;;26.30;54.20;;;;;;4718643;30;20065;-76
2022/08/15 09:36:33;;;;;;;2.72;1.70;;;26.30;54.10;;;;;;4718492;30;20116;-78
2022/08/15 09:39:13;;;;;;;2.58;1.65;;;26.20;54.20;;;;;;4713116;30;20082;-78
2022/08/15 09:41:54;;;;;;;1.75;1.17;;;26.20;54.20;;;;;;4712671;30;20455;-80
2022/08/15 09:45:09;;;;;;;2.20;1.75;;;26.10;54.20;;;;;;4712848;30;20056;-80
2022/08/15 09:48:00;;;;;;;2.33;1.60;;;26.10;54.30;;;;;;4670619;30;20065;-79
2022/08/15 09:50:40;;;;;;;2.00;1.50;;;26.00;54.40;;;;;;4710514;30;20458;-80
2022/08/15 09:53:37;;;;;;;2.75;1.20;;;26.00;54.50;;;;;;4706071;30;20049;-80
2022/08/15 09:56:21;;;;;;;3.00;1.58;;;25.90;54.60;;;;;;4717152;30;20059;-78
2022/08/15 09:59:04;;;;;;;2.35;1.40;;;25.80;54.70;;;;;;4712270;30;20415;-78
2022/08/15 10:01:43;;;;;;;2.00;1.08;;;25.80;54.80;;;;;;4719285;30;20052;-78
2022/08/15 10:04:40;;;;;;;2.42;1.50;;;25.70;54.70;;;;;;4703367;30;20056;-78
2022/08/15 10:07:07;;;;;;;2.30;1.45;;;25.70;54.80;;;;;;4709723;30;20472;-79
2022/08/15 10:10:23;;;;;;;2.60;1.63;;;25.70;54.90;;;;;;4719887;30;20146;-78
2022/08/15 10:13:07;;;;;;;2.90;1.60;;;25.70;54.80;;;;;;4681119;30;20399;-79
2022/08/15 10:15:44;;;;;;;2.17;1.25;;;25.70;55.00;;;;;;4710668;30;20065;-78
2022/08/15 10:18:40;;;;;;;;;;;25.70;55.10;;;;;;4719859;30;20131;-79
2022/08/15 10:21:20;;;;;;;2.47;1.30;;;25.60;55.20;;;;;;4714386;30;19962;-84
2022/08/15 10:23:53;;;;;;;4.00;1.48;;;25.60;55.30;;;;;;4708203;30;20053;-85
2022/08/15 10:26:36;;;;;;;3.53;1.85;;;25.70;55.50;;;;;;4695751;30;20503;-85
2022/08/15 10:29:12;;;;;;;2.55;1.58;;;25.60;55.60;;;;;;4710949;30;20103;-86
2022/08/15 10:31:55;;;;;;;2.10;1.33;;;25.70;55.70;;;;;;4713288;30;20471;-83
2022/08/15 10:35:05;;;;;;;2.58;1.40;;;25.70;55.70;;;;;;4693716;30;20055;-86
2022/08/15 10:37:54;;;;;;;2.72;1.60;;;25.70;55.80;;;;;;4716223;30;20471;-80
2022/08/15 10:40:52;;;;;;;2.10;1.33;;;25.80;56.10;;;;;;4722103;30;20063;-88
2022/08/15 10:43:33;;;;;;;2.53;1.40;;;25.80;56.10;;;;;;4707030;30;20053;-91
2022/08/15 10:46:46;;;;;;;2.22;1.35;;;25.90;56.20;;;;;;4709598;30;20052;-86
2022/08/15 10:49:59;;;;;;;3.75;2.53;;;26.10;56.20;;;;;;4700128;30;20053;-88
2022/08/15 10:52:57;;;;;;;3.80;2.00;;;26.10;56.20;;;;;;4704368;30;20067;-87
2022/08/15 10:55:27;;;;;;;3.20;1.80;;;26.40;56.10;;;;;;4717662;30;20049;-86
2022/08/15 10:58:49;;;;;;;2.92;2.33;;;26.60;55.90;;;;;;4722887;30;20109;-85
2022/08/15 11:02:02;;;;;;;3.85;2.88;;;26.90;55.60;;;;;;4667078;30;20174;-89
2022/08/15 11:04:43;;;;;;;4.05;2.63;;;26.90;55.60;;;;;;4643225;30;20050;-87
2022/08/15 11:07:28;;;;;;;7.50;3.78;;;26.90;55.80;;;;;;4668054;30;20057;-90
2022/08/15 11:10:16;;;;;;;6.35;3.22;;;26.80;56.00;;;;;;4663018;30;20062;-84
2022/08/15 11:17:03;;;;;;;6.15;3.63;;;27.00;56.00;;;;;;4676851;30;20066;-88
2022/08/15 11:19:44;;;;;;;4.18;3.40;;;27.20;55.90;;;;;;4667049;30;20073;-87
2022/08/15 11:22:37;;;;;;;3.53;2.85;;;27.20;55.80;;;;;;4666305;30;20065;-89
2022/08/15 11:25:17;;;;;;;5.70;2.80;;;27.20;55.80;;;;;;4666709;30;20050;-86
2022/08/15 11:28:01;;;;;;;5.45;2.88;;;27.40;55.70;;;;;;4679752;30;20065;-88
2022/08/15 11:30:32;;;;;;;3.65;2.63;;;27.60;55.60;;;;;;4676550;30;20084;-88
2022/08/15 11:33:19;;;;;;;3.38;2.25;;;27.70;55.60;;;;;;4708451;30;20147;-83
2022/08/15 11:36:17;;;;;;;3.55;2.70;;;27.70;55.50;;;;;;4731272;30;20541;-91
2022/08/15 11:38:59;;;;;;;3.55;2.08;;;27.60;55.70;;;;;;4725864;30;20055;-87
2022/08/15 11:41:56;;;;;;;3.58;2.13;;;27.50;56.00;;;;;;4722415;30;20055;-91
2022/08/15 11:44:45;;;;;;;3.00;2.35;;;27.40;56.10;;;;;;4719440;30;20079;-83
2022/08/15 11:47:17;;;;;;;3.03;1.73;;;27.30;56.20;;;;;;4694723;30;20052;-82
2022/08/15 11:49:57;;;;;;;3.20;2.00;;;27.20;56.40;;;;;;4718002;30;20057;-83
2022/08/15 11:52:31;;;;;;;3.97;2.25;;;27.20;56.60;;;;;;4709408;30;20052;-83
2022/08/15 11:55:14;;;;;;;3.65;2.33;;;27.10;56.60;;;;;;4718592;30;20053;-82
2022/08/15 11:57:55;;;;;;;2.97;2.45;;;27.10;56.80;;;;;;4733692;30;20076;-82
2022/08/15 12:00:37;;;;;;;;;;;27.20;56.80;;;;;;4718851;30;20051;-82
2022/08/15 12:03:23;;;;;;;;;;;27.10;56.90;;;;;;4725583;30;21304;-83
2022/08/15 12:06:13;;;;;;;4.07;2.72;;;27.00;56.90;;;;;;4706531;30;19926;-83
2022/08/15 12:09:14;;;;;;;4.03;2.58;;;27.10;56.80;;;;;;4706215;30;20125;-83
2022/08/15 12:12:27;;;;;;;3.23;2.43;;;27.20;56.60;;;;;;4734222;30;20147;-83
2022/08/15 12:15:18;;;;;;;3.90;2.53;;;27.20;56.50;;;;;;4739233;30;20291;-82
2022/08/15 12:18:32;;;;;;;4.03;2.42;;;27.20;56.60;;;;;;4709063;30;20067;-82
2022/08/15 12:21:17;;;;;;;3.72;2.10;;;27.10;56.50;;;;;;4734737;30;20075;-85
2022/08/15 12:23:57;;;;;;;4.35;2.00;;;27.10;56.70;;;;;;4718096;30;20052;-83
2022/08/15 12:26:28;;;;;;;3.40;2.60;;;27.20;56.70;;;;;;4706814;30;20063;-83
2022/08/15 12:29:16;;;;;;;3.20;2.15;;;27.20;56.60;;;;;;4720090;30;20056;-83
2022/08/15 12:31:50;;;;;;;2.88;2.08;;;27.10;56.70;;;;;;4726548;30;20048;-85
2022/08/15 12:34:24;;;;;;;3.00;1.98;;;27.10;56.90;;;;;;4717303;30;20414;-85
2022/08/15 12:37:10;;;;;;;4.47;3.33;;;27.10;56.90;;;;;;4717370;30;20052;-85
2022/08/15 12:40:06;;;;;;;5.05;3.00;;;27.10;56.90;;;;;;4716968;30;20053;-82
2022/08/15 12:42:54;;;;;;;3.30;2.55;;;27.00;57.00;;;;;;4719642;30;20056;-82
2022/08/15 12:45:27;;;;;;;4.45;3.05;;;27.10;57.00;;;;;;4705390;30;20048;-83
2022/08/15 12:48:21;;;;;;;4.20;2.92;;;27.00;56.90;;;;;;4728350;30;20135;-82
2022/08/15 12:51:04;;;;;;;3.92;3.10;;;26.90;56.90;;;;;;4725017;30;20108;-83
2022/08/15 12:53:32;;;;;;;3.85;2.70;;;26.90;57.10;;;;;;4721541;30;20688;-83
2022/08/15 12:56:02;;;;;;;4.18;2.72;;;26.90;57.10;;;;;;4716143;30;20049;-82
2022/08/15 12:58:54;;;;;;;4.22;2.60;;;27.00;57.10;;;;;;4705160;30;20059;-81
2022/08/15 13:01:32;;;;;;;3.08;1.77;;;26.90;57.10;;;;;;4716748;30;20048;-81
2022/08/15 13:04:25;;;;;;;3.78;2.33;;;27.10;57.10;;;;;;4700744;30;20056;-83
2022/08/15 13:07:14;;;;;;;2.95;1.95;;;27.10;57.00;;;;;;4728658;30;20067;-80
2022/08/15 13:09:57;;;;;;;4.93;2.40;;;27.20;56.90;;;;;;4726344;30;20076;-88
2022/08/15 13:12:46;;;;;;;3.38;2.10;;;27.20;56.90;;;;;;4693902;30;20059;-86
2022/08/15 13:15:13;;;;;;;2.70;2.13;;;27.20;56.70;;;;;;4700021;30;20049;-87
2022/08/15 13:17:43;;;;;;;3.47;2.40;;;27.30;56.60;;;;;;4720207;30;20044;-92
2022/08/15 13:23:36;;;;;;;2.53;1.85;;;27.30;56.60;;;;;;4711495;30;20033;-84
2022/08/15 13:26:24;;;;;;;3.17;2.03;;;27.20;56.60;;;;;;4708708;30;20058;-86
2022/08/15 13:29:01;;;;;;;2.78;1.80;;;27.30;56.60;;;;;;4702092;30;20048;-87
2022/08/15 13:31:28;;;;;;;;;;;27.30;56.50;;;;;;4717463;30;20088;-87
2022/08/15 13:33:58;;;;;;;3.20;2.20;;;27.30;56.60;;;;;;4720648;30;19960;-88
2022/08/15 13:36:30;;;;;;;2.63;1.85;;;27.30;56.50;;;;;;4717815;30;20048;-88
2022/08/15 13:39:03;;;;;;;2.45;1.70;;;27.40;56.40;;;;;;4719160;30;20757;-88
2022/08/15 13:41:40;;;;;;;;;;;27.50;56.30;;;;;;4731391;30;20469;-88
2022/08/15 13:44:29;;;;;;;5.32;2.17;;;27.60;56.20;;;;;;4715628;30;20337;-88
2022/08/15 13:47:07;;;;;;;4.90;1.58;;;27.80;56.00;;;;;;4714695;30;20060;-88
2022/08/15 13:49:39;;;;;;;2.75;2.00;;;28.10;55.40;;;;;;4695977;30;20101;-88
2022/08/15 13:52:07;;;;;;;3.55;2.10;;;28.30;55.20;;;;;;4703347;30;20108;-87
2022/08/15 13:54:55;;;;;;;3.42;2.08;;;28.40;54.80;;;;;;4707813;30;20063;-88
2022/08/15 13:57:29;;;;;;;;;;;28.50;54.50;;;;;;4711165;30;20066;-88
2022/08/15 13:59:58;;;;;;;3.63;2.42;;;28.60;54.20;;;;;;4719094;30;19934;-83
2022/08/15 14:02:27;;;;;;;4.18;2.83;;;28.50;54.20;;;;;;4700521;30;20048;-85
2022/08/15 14:05:06;;;;;;;3.88;2.58;;;28.60;53.80;;;;;;4714674;30;20060;-84
2022/08/15 14:07:36;;;;;;;3.55;2.63;;;28.50;53.90;;;;;;4730194;30;20072;-84
2022/08/15 14:10:25;;;;;;;5.32;2.67;;;28.30;53.80;;;;;;4703573;30;20139;-84
2022/08/15 14:13:13;;;;;;;3.28;2.47;;;28.20;54.00;;;;;;4718427;30;20297;-83
2022/08/15 14:15:52;;;;;;;3.78;2.67;;;28.10;54.10;;;;;;4715539;30;20048;-84